Time;durP1;ratioP1;P1;durP2;ratioP2;P2;SDS_P1;SDS_P2;PMS_P1;PMS_P2;Temp;Humidity;BMP_temperature;BMP_pressure;BME280_temperature;BME280_humidity;BME280_pressure;Samples;Min_cycle;Max_cycle;Signal;HPM_P1;HPM_P2
2023/02/03 00:01:05;;;;;;;1.15;0.50;;;27.10;49.30;;;;;;4975048;28;20202;-49
2023/02/03 00:03:38;;;;;;;0.80;0.35;;;27.10;49.20;;;;;;4974606;28;20198;-48
2023/02/03 00:06:09;;;;;;;0.68;0.28;;;27.10;49.00;;;;;;4974650;28;20206;-51
2023/02/03 00:08:40;;;;;;;1.27;0.52;;;27.10;49.00;;;;;;4974234;28;20710;-50
2023/02/03 00:11:11;;;;;;;2.38;0.60;;;27.20;49.10;;;;;;4974592;28;20225;-49
2023/02/03 00:13:42;;;;;;;0.85;0.68;;;27.20;49.20;;;;;;4974511;28;20205;-52
2023/02/03 00:16:13;;;;;;;1.83;0.63;;;27.20;49.20;;;;;;4974467;28;20194;-52
2023/02/03 00:18:45;;;;;;;0.50;0.40;;;27.20;49.20;;;;;;4974668;28;20229;-51
2023/02/03 00:21:16;;;;;;;0.77;0.30;;;27.30;49.30;;;;;;4974042;28;20209;-50
2023/02/03 00:23:47;;;;;;;1.00;0.40;;;27.30;49.20;;;;;;4973918;28;20198;-52
2023/02/03 00:26:19;;;;;;;2.53;0.50;;;27.40;49.20;;;;;;4974032;28;20206;-52
2023/02/03 00:28:49;;;;;;;1.33;0.60;;;27.40;49.20;;;;;;4973263;28;20226;-50
2023/02/03 00:31:21;;;;;;;1.20;0.30;;;27.40;49.10;;;;;;4974681;28;20240;-47
2023/02/03 00:33:57;;;;;;;0.70;0.32;;;27.50;49.40;;;;;;4975025;28;20199;-49
2023/02/03 00:36:28;;;;;;;0.73;0.30;;;27.60;49.50;;;;;;4973496;28;20202;-50
2023/02/03 00:38:59;;;;;;;2.13;0.40;;;27.60;49.40;;;;;;4973663;28;20612;-46
2023/02/03 00:41:32;;;;;;;3.03;0.32;;;27.70;49.40;;;;;;4974125;28;20205;-50
2023/02/03 00:44:02;;;;;;;0.70;0.40;;;27.70;49.30;;;;;;4972953;28;20244;-48
2023/02/03 00:46:34;;;;;;;0.45;0.32;;;27.80;49.30;;;;;;4975594;28;20198;-51
2023/02/03 00:49:07;;;;;;;0.50;0.50;;;27.90;49.30;;;;;;4986156;28;20614;-48
2023/02/03 00:51:38;;;;;;;0.93;0.20;;;28.00;49.30;;;;;;4972860;28;20229;-49
2023/02/03 00:54:09;;;;;;;0.82;0.30;;;28.00;49.40;;;;;;4973607;28;20202;-49
2023/02/03 00:56:40;;;;;;;0.25;0.20;;;28.10;49.40;;;;;;4973669;28;20244;-48
2023/02/03 00:59:10;;;;;;;0.47;0.30;;;28.20;49.30;;;;;;4973909;28;20611;-50
2023/02/03 01:01:41;;;;;;;0.30;0.30;;;28.20;49.10;;;;;;4973520;28;20208;-51
2023/02/03 01:04:14;;;;;;;0.30;0.28;;;28.30;49.00;;;;;;4973964;28;20198;-51
2023/02/03 01:06:45;;;;;;;0.80;0.30;;;28.40;49.10;;;;;;4969710;28;20201;-50
2023/02/03 01:09:15;;;;;;;0.45;0.30;;;28.40;49.10;;;;;;4972914;28;20210;-50
2023/02/03 01:11:46;;;;;;;1.27;0.30;;;28.50;49.00;;;;;;4974106;28;20237;-50
2023/02/03 01:14:16;;;;;;;0.35;0.30;;;28.60;48.90;;;;;;4973676;28;20205;-48
2023/02/03 01:16:47;;;;;;;0.77;0.30;;;28.60;48.70;;;;;;4974881;28;20194;-49
2023/02/03 01:19:20;;;;;;;0.30;0.30;;;28.70;48.80;;;;;;4992680;28;20217;-53
2023/02/03 01:21:50;;;;;;;0.50;0.30;;;28.80;48.90;;;;;;4992723;28;20185;-52
2023/02/03 01:24:21;;;;;;;0.57;0.30;;;28.80;49.00;;;;;;4992311;28;20206;-51
2023/02/03 01:26:52;;;;;;;1.08;0.35;;;28.90;49.10;;;;;;4992313;28;20194;-52
2023/02/03 01:29:22;;;;;;;0.30;0.30;;;28.90;49.10;;;;;;4992687;28;20217;-48
2023/02/03 01:31:53;;;;;;;0.30;0.30;;;28.90;49.10;;;;;;4985686;28;20229;-48
2023/02/03 01:34:26;;;;;;;0.80;0.40;;;29.00;49.20;;;;;;4972700;28;20674;-49
2023/02/03 01:36:56;;;;;;;0.68;0.50;;;29.00;49.30;;;;;;4973580;28;20552;-50
2023/02/03 01:39:27;;;;;;;0.38;0.38;;;29.10;49.30;;;;;;4972490;28;20682;-48
2023/02/03 01:41:58;;;;;;;0.65;0.50;;;29.10;49.20;;;;;;4973105;28;20281;-50
2023/02/03 01:44:42;;;;;;;0.30;0.30;;;29.10;49.20;;;;;;4973180;28;20201;-48
2023/02/03 01:47:27;;;;;;;0.25;0.25;;;29.10;49.20;;;;;;4972955;28;20195;-51
2023/02/03 01:50:05;;;;;;;0.60;0.40;;;29.20;49.20;;;;;;4972603;28;20194;-49
2023/02/03 01:52:37;;;;;;;1.08;0.40;;;29.20;49.20;;;;;;4973046;28;20236;-50
2023/02/03 01:55:11;;;;;;;0.47;0.30;;;29.20;49.30;;;;;;4972073;28;20449;-50
2023/02/03 01:57:48;;;;;;;0.60;0.30;;;29.30;49.40;;;;;;4972450;28;20197;-49
2023/02/03 02:00:20;;;;;;;0.30;0.30;;;29.30;49.50;;;;;;4972620;28;20194;-50
2023/02/03 02:02:52;;;;;;;0.65;0.30;;;29.30;49.50;;;;;;4971532;28;20186;-47
2023/02/03 02:05:31;;;;;;;0.32;0.30;;;29.30;49.50;;;;;;4972907;28;20205;-49
2023/02/03 02:08:03;;;;;;;0.55;0.30;;;29.30;49.60;;;;;;4972827;28;20225;-51
2023/02/03 02:10:35;;;;;;;0.28;0.28;;;29.30;49.70;;;;;;4971689;28;20194;-50
2023/02/03 02:13:07;;;;;;;1.02;0.35;;;29.30;49.70;;;;;;4972398;28;20209;-49
2023/02/03 02:15:49;;;;;;;0.30;0.30;;;29.40;49.80;;;;;;4971876;28;20201;-54
2023/02/03 02:18:35;;;;;;;0.50;0.30;;;29.40;49.90;;;;;;4972152;28;20214;-50
2023/02/03 02:21:33;;;;;;;0.45;0.40;;;29.40;50.10;;;;;;4972380;28;20612;-50
2023/02/03 02:24:30;;;;;;;0.50;0.45;;;29.40;50.00;;;;;;4971992;28;20205;-48
2023/02/03 02:27:13;;;;;;;1.38;0.40;;;29.40;50.00;;;;;;4953215;28;20659;-48
2023/02/03 02:30:19;;;;;;;0.30;0.30;;;29.50;49.90;;;;;;4972200;28;20214;-51
2023/02/03 02:33:04;;;;;;;0.47;0.30;;;29.50;49.80;;;;;;4971536;28;20655;-49
2023/02/03 02:35:46;;;;;;;0.40;0.40;;;29.50;49.70;;;;;;4971799;28;20201;-51
2023/02/03 02:38:27;;;;;;;0.40;0.20;;;29.50;49.70;;;;;;4971619;28;20254;-51
2023/02/03 02:41:03;;;;;;;0.77;0.40;;;29.60;49.80;;;;;;4972021;28;20263;-50
2023/02/03 02:43:41;;;;;;;0.25;0.25;;;29.60;49.70;;;;;;4971880;28;20197;-52
2023/02/03 02:46:15;;;;;;;0.60;0.30;;;29.60;49.70;;;;;;4971889;28;20230;-48
2023/02/03 02:48:54;;;;;;;0.50;0.30;;;29.60;49.70;;;;;;4971551;28;20213;-51
2023/02/03 02:51:25;;;;;;;0.40;0.30;;;29.70;49.70;;;;;;4971710;28;20225;-47
2023/02/03 02:53:58;;;;;;;0.30;0.30;;;29.70;49.70;;;;;;4970449;28;20203;-52
2023/02/03 02:56:30;;;;;;;1.17;0.30;;;29.70;49.70;;;;;;4971979;28;20201;-46
2023/02/03 02:59:04;;;;;;;0.52;0.30;;;29.70;49.70;;;;;;4971758;28;20554;-51
2023/02/03 03:01:35;;;;;;;3.63;0.30;;;29.70;49.70;;;;;;4971105;28;20198;-48
2023/02/03 03:04:11;;;;;;;0.50;0.40;;;29.80;49.70;;;;;;4970794;28;20206;-50
2023/02/03 03:06:46;;;;;;;1.13;0.38;;;29.80;49.70;;;;;;4970769;28;20603;-49
2023/02/03 03:09:20;;;;;;;0.22;0.22;;;29.80;49.70;;;;;;4971674;28;20236;-52
2023/02/03 03:11:55;;;;;;;0.30;0.30;;;29.90;49.80;;;;;;4971526;28;20751;-50
2023/02/03 03:14:28;;;;;;;0.57;0.38;;;29.90;49.70;;;;;;4973399;28;20562;-49
2023/02/03 03:17:02;;;;;;;0.30;0.30;;;29.90;49.60;;;;;;4974713;28;20241;-49
2023/02/03 03:19:38;;;;;;;0.63;0.30;;;30.00;49.70;;;;;;4975824;28;20225;-48
2023/02/03 03:22:11;;;;;;;0.20;0.20;;;30.00;49.70;;;;;;4975392;28;20202;-49
2023/02/03 03:24:47;;;;;;;0.40;0.28;;;30.00;49.70;;;;;;4994418;28;20213;-48
2023/02/03 03:27:23;;;;;;;1.85;0.30;;;30.10;49.70;;;;;;4994670;28;20196;-50
2023/02/03 03:29:58;;;;;;;0.30;0.30;;;30.10;49.60;;;;;;4955226;28;20226;-47
2023/02/03 03:32:31;;;;;;;0.20;0.20;;;30.10;49.70;;;;;;4967083;28;20229;-47
2023/02/03 03:35:05;;;;;;;0.50;0.40;;;30.10;49.70;;;;;;4974418;28;20233;-47
2023/02/03 03:37:38;;;;;;;0.50;0.40;;;30.20;49.80;;;;;;4974940;28;20211;-47
2023/02/03 03:40:15;;;;;;;0.30;0.30;;;30.20;49.80;;;;;;4974472;28;20225;-49
2023/02/03 03:42:51;;;;;;;0.40;0.40;;;30.30;49.80;;;;;;4974283;28;20533;-47
2023/02/03 03:45:26;;;;;;;0.30;0.20;;;30.30;49.80;;;;;;4974631;28;20205;-48
2023/02/03 03:48:02;;;;;;;0.30;0.30;;;30.30;49.80;;;;;;4974881;28;20210;-51
2023/02/03 03:50:37;;;;;;;0.40;0.40;;;30.40;50.00;;;;;;4974485;28;20264;-47
2023/02/03 03:53:10;;;;;;;0.30;0.30;;;30.40;50.00;;;;;;4975328;28;20225;-48
2023/02/03 03:55:43;;;;;;;0.30;0.30;;;30.40;49.90;;;;;;4974789;28;20563;-49
2023/02/03 03:58:18;;;;;;;0.43;0.20;;;30.50;49.90;;;;;;4974414;28;20225;-49
2023/02/03 04:00:49;;;;;;;0.65;0.30;;;30.50;49.80;;;;;;4974210;28;20194;-49
2023/02/03 04:03:24;;;;;;;0.88;0.30;;;30.60;49.80;;;;;;4974506;28;20198;-49
2023/02/03 04:05:57;;;;;;;0.40;0.40;;;30.60;49.70;;;;;;4974532;28;20194;-49
2023/02/03 04:08:27;;;;;;;0.30;0.25;;;30.60;49.70;;;;;;4973955;28;20210;-51
2023/02/03 04:10:58;;;;;;;0.52;0.32;;;30.60;49.70;;;;;;4974242;28;20198;-50
2023/02/03 04:13:29;;;;;;;1.27;0.40;;;30.70;49.70;;;;;;4974641;28;20197;-49
2023/02/03 04:15:59;;;;;;;1.42;0.40;;;30.70;49.60;;;;;;4974784;28;20685;-49
2023/02/03 04:18:30;;;;;;;0.40;0.38;;;30.80;49.60;;;;;;4973805;28;20205;-48
2023/02/03 04:21:03;;;;;;;0.45;0.40;;;30.80;49.60;;;;;;4973910;28;20209;-50
2023/02/03 04:23:33;;;;;;;0.30;0.30;;;30.80;49.60;;;;;;4974071;28;20194;-52
2023/02/03 04:26:04;;;;;;;0.50;0.47;;;30.80;49.60;;;;;;4972880;28;20202;-48
2023/02/03 04:28:35;;;;;;;1.13;0.30;;;30.90;49.60;;;;;;4973878;28;20709;-48
2023/02/03 04:31:05;;;;;;;0.60;0.40;;;30.90;49.60;;;;;;4973642;28;20674;-51
2023/02/03 04:33:36;;;;;;;0.30;0.30;;;30.90;49.50;;;;;;4974092;28;20532;-51
2023/02/03 04:36:09;;;;;;;0.25;0.25;;;31.00;50.20;;;;;;4973976;28;20213;-49
2023/02/03 04:38:40;;;;;;;0.85;0.40;;;31.00;49.60;;;;;;4974112;28;20718;-49
2023/02/03 04:41:11;;;;;;;1.75;0.40;;;31.00;49.60;;;;;;4973156;28;20680;-49
2023/02/03 04:43:41;;;;;;;0.22;0.22;;;31.10;49.70;;;;;;4974343;28;20190;-47
2023/02/03 04:46:12;;;;;;;0.43;0.40;;;31.10;49.60;;;;;;4972759;28;20197;-51
2023/02/03 04:48:43;;;;;;;0.35;0.35;;;31.10;49.60;;;;;;4973440;28;20686;-47
2023/02/03 04:51:15;;;;;;;0.20;0.20;;;31.20;49.50;;;;;;4973161;28;20573;-46
2023/02/03 04:53:46;;;;;;;0.43;0.30;;;31.20;49.50;;;;;;4974294;28;20205;-50
2023/02/03 04:56:17;;;;;;;0.30;0.30;;;31.20;49.40;;;;;;4973594;28;20693;-49
2023/02/03 04:58:47;;;;;;;1.45;0.32;;;31.20;49.40;;;;;;4972734;28;20214;-46
2023/02/03 05:01:18;;;;;;;0.30;0.30;;;31.30;49.30;;;;;;4973083;28;20209;-50
2023/02/03 05:03:48;;;;;;;0.43;0.30;;;31.30;49.20;;;;;;4971030;28;20205;-50
2023/02/03 05:06:26;;;;;;;0.47;0.30;;;31.30;49.10;;;;;;4973763;28;20285;-49
2023/02/03 05:08:56;;;;;;;0.20;0.20;;;31.40;49.20;;;;;;4972392;28;20245;-49
2023/02/03 05:11:27;;;;;;;0.85;0.50;;;31.40;49.20;;;;;;4973646;28;20204;-49
2023/02/03 05:13:58;;;;;;;1.00;0.40;;;31.40;49.20;;;;;;4973393;28;20284;-49
2023/02/03 05:16:29;;;;;;;0.47;0.32;;;31.50;49.20;;;;;;4973765;28;20292;-48
2023/02/03 05:18:59;;;;;;;0.40;0.30;;;31.40;49.00;;;;;;4970590;28;20209;-51
2023/02/03 05:21:32;;;;;;;0.85;0.40;;;31.40;49.00;;;;;;4953112;28;20217;-51
2023/02/03 05:24:05;;;;;;;0.40;0.38;;;31.50;49.10;;;;;;4961242;28;20201;-49
2023/02/03 05:26:36;;;;;;;0.40;0.38;;;31.50;49.20;;;;;;4971924;28;20244;-51
2023/02/03 05:29:07;;;;;;;0.38;0.30;;;31.50;49.10;;;;;;4972802;28;20220;-50
2023/02/03 05:31:37;;;;;;;0.30;0.30;;;31.50;49.20;;;;;;4972627;28;20204;-50
2023/02/03 05:34:08;;;;;;;0.40;0.30;;;31.50;49.10;;;;;;4973474;28;20269;-49
2023/02/03 05:36:41;;;;;;;0.30;0.30;;;31.60;49.30;;;;;;4972305;28;20724;-52
2023/02/03 05:39:11;;;;;;;1.15;0.50;;;31.60;49.30;;;;;;4961626;28;20222;-50
2023/02/03 05:41:53;;;;;;;1.33;0.40;;;31.60;49.30;;;;;;4972907;28;20213;-52
2023/02/03 05:44:24;;;;;;;1.05;0.32;;;31.60;49.30;;;;;;4973586;28;20206;-51
2023/02/03 05:46:56;;;;;;;0.98;0.30;;;31.60;48.60;;;;;;4972529;28;20685;-51
2023/02/03 05:49:27;;;;;;;1.23;0.65;;;31.60;48.20;;;;;;4972745;28;20216;-49
2023/02/03 05:52:00;;;;;;;1.55;0.60;;;31.60;48.30;;;;;;4972423;28;20636;-50
2023/02/03 05:54:31;;;;;;;1.52;0.60;;;31.50;48.40;;;;;;4971136;28;20566;-51
2023/02/03 05:57:01;;;;;;;0.63;0.38;;;31.50;48.50;;;;;;4972800;28;20203;-50
2023/02/03 05:59:32;;;;;;;0.75;0.40;;;31.50;48.50;;;;;;4971919;28;20738;-51
2023/02/03 06:02:03;;;;;;;1.33;0.40;;;31.50;48.60;;;;;;4972893;28;20198;-46
2023/02/03 06:04:33;;;;;;;2.90;0.60;;;31.60;48.70;;;;;;4972227;28;20197;-46
2023/02/03 06:07:06;;;;;;;3.10;0.60;;;31.60;48.40;;;;;;4972935;28;20201;-50
2023/02/03 06:09:37;;;;;;;1.70;0.47;;;31.60;48.40;;;;;;4972763;28;20614;-47
2023/02/03 06:12:08;;;;;;;2.05;0.60;;;31.60;48.50;;;;;;4972844;28;20248;-49
2023/02/03 06:14:38;;;;;;;1.65;0.70;;;31.60;48.50;;;;;;4973040;28;20197;-51
2023/02/03 06:17:09;;;;;;;2.17;0.82;;;31.60;48.60;;;;;;4972857;28;20204;-49
2023/02/03 06:19:40;;;;;;;2.58;1.00;;;31.60;48.60;;;;;;4973216;28;20222;-46
2023/02/03 06:22:12;;;;;;;3.20;1.00;;;31.60;48.50;;;;;;4972747;28;20198;-50
2023/02/03 06:24:43;;;;;;;1.55;0.85;;;31.70;48.60;;;;;;4972436;28;20201;-48
2023/02/03 06:27:14;;;;;;;2.70;1.00;;;31.70;48.60;;;;;;4972752;28;20209;-49
2023/02/03 06:29:44;;;;;;;2.47;1.08;;;31.70;48.50;;;;;;4972741;28;20232;-46
2023/02/03 06:32:15;;;;;;;2.35;1.17;;;31.70;48.40;;;;;;4972693;28;20217;-47
2023/02/03 06:34:46;;;;;;;3.15;1.42;;;31.70;48.40;;;;;;4972468;28;20658;-49
2023/02/03 06:37:18;;;;;;;2.20;1.20;;;31.70;48.30;;;;;;4971238;28;20251;-50
2023/02/03 06:39:49;;;;;;;2.95;1.25;;;31.80;48.30;;;;;;4972120;28;20722;-49
2023/02/03 06:42:20;;;;;;;2.78;1.35;;;31.80;48.30;;;;;;4971971;28;20616;-50
2023/02/03 06:44:51;;;;;;;1.58;1.10;;;31.70;48.30;;;;;;4972105;28;20561;-49
2023/02/03 06:47:22;;;;;;;1.65;1.10;;;31.70;48.30;;;;;;4972399;28;20249;-47
2023/02/03 06:49:52;;;;;;;1.52;1.20;;;31.70;48.30;;;;;;4974501;28;20235;-47
2023/02/03 06:52:25;;;;;;;2.53;1.23;;;31.70;48.30;;;;;;4976517;28;20581;-46
2023/02/03 06:54:55;;;;;;;3.55;1.83;;;31.70;48.10;;;;;;4976150;28;20201;-47
2023/02/03 06:57:26;;;;;;;2.97;1.48;;;31.80;48.00;;;;;;4975694;28;20193;-50
2023/02/03 06:59:57;;;;;;;2.00;1.35;;;31.70;47.90;;;;;;4976249;28;20217;-47
2023/02/03 07:02:28;;;;;;;4.65;2.05;;;31.70;47.90;;;;;;4976316;28;20202;-45
2023/02/03 07:04:58;;;;;;;2.90;1.58;;;31.70;47.80;;;;;;4976625;28;20587;-50
2023/02/03 07:07:32;;;;;;;3.10;1.50;;;31.80;47.80;;;;;;4976215;28;20566;-50
2023/02/03 07:10:03;;;;;;;3.30;1.45;;;31.70;47.60;;;;;;4975786;28;20567;-47
2023/02/03 07:12:35;;;;;;;1.88;1.38;;;31.70;47.60;;;;;;4975978;28;20231;-47
2023/02/03 07:15:06;;;;;;;2.35;1.50;;;31.70;47.60;;;;;;4975693;28;20198;-49
2023/02/03 07:17:37;;;;;;;1.90;1.30;;;31.80;47.60;;;;;;4975935;28;20225;-47
2023/02/03 07:20:08;;;;;;;2.33;1.48;;;31.80;47.60;;;;;;4975970;28;20543;-49
2023/02/03 07:22:42;;;;;;;1.77;1.25;;;31.80;47.70;;;;;;4976729;28;20576;-49
2023/02/03 07:25:13;;;;;;;2.28;1.40;;;31.80;47.70;;;;;;4975588;28;20646;-49
2023/02/03 07:27:44;;;;;;;2.78;1.30;;;31.80;47.80;;;;;;4975597;28;20430;-48
2023/02/03 07:30:15;;;;;;;2.05;1.67;;;31.80;47.80;;;;;;4975531;28;20209;-46
2023/02/03 07:32:50;;;;;;;1.80;1.38;;;31.80;47.70;;;;;;4975496;28;20232;-46
2023/02/03 07:35:21;;;;;;;1.80;1.30;;;31.80;47.70;;;;;;4975695;28;20197;-49
2023/02/03 07:37:55;;;;;;;1.88;1.30;;;31.80;47.60;;;;;;4975176;28;20568;-45
2023/02/03 07:40:26;;;;;;;1.63;1.08;;;31.70;47.60;;;;;;4975053;28;20201;-47
2023/02/03 07:42:56;;;;;;;2.10;1.10;;;31.70;47.50;;;;;;4975406;28;20198;-50
2023/02/03 07:45:27;;;;;;;1.20;1.10;;;31.70;47.60;;;;;;4975663;28;20201;-52
2023/02/03 07:47:58;;;;;;;1.95;1.00;;;31.70;47.60;;;;;;4975295;28;20228;-48
2023/02/03 07:50:32;;;;;;;1.20;1.10;;;31.70;47.50;;;;;;4975682;28;20197;-50
2023/02/03 07:53:05;;;;;;;2.33;1.17;;;31.70;47.50;;;;;;4974078;28;20217;-50
2023/02/03 07:55:35;;;;;;;2.47;1.33;;;31.60;47.40;;;;;;4974246;28;20212;-49
2023/02/03 07:58:06;;;;;;;2.30;1.10;;;31.60;47.40;;;;;;4974707;28;20588;-47
2023/02/03 08:00:37;;;;;;;1.88;1.33;;;31.60;47.40;;;;;;4975209;28;20212;-48
2023/02/03 08:03:07;;;;;;;1.95;1.10;;;31.60;47.30;;;;;;4975294;28;20213;-48
2023/02/03 08:05:38;;;;;;;2.10;1.23;;;31.60;47.30;;;;;;4975754;28;20201;-46
2023/02/03 08:08:11;;;;;;;2.00;1.00;;;31.60;47.40;;;;;;4974931;28;20217;-49
2023/02/03 08:10:41;;;;;;;1.17;0.98;;;31.60;47.30;;;;;;4975162;28;20205;-50
2023/02/03 08:13:12;;;;;;;1.10;1.00;;;31.50;47.10;;;;;;4975251;28;20237;-46
2023/02/03 08:15:46;;;;;;;1.80;1.10;;;31.50;47.10;;;;;;4975439;28;20212;-46
2023/02/03 08:18:16;;;;;;;1.75;1.20;;;31.50;46.90;;;;;;4974341;28;20217;-47
2023/02/03 08:20:48;;;;;;;1.88;1.10;;;31.50;47.00;;;;;;4974357;28;20198;-47
2023/02/03 08:23:21;;;;;;;1.15;1.05;;;31.50;46.90;;;;;;4974323;28;20229;-47
2023/02/03 08:25:54;;;;;;;1.35;1.00;;;31.40;46.90;;;;;;4974532;28;20198;-46
2023/02/03 08:28:25;;;;;;;1.50;0.95;;;31.40;46.90;;;;;;4974451;28;20218;-47
2023/02/03 08:30:56;;;;;;;2.22;1.00;;;31.40;46.90;;;;;;4974644;28;20209;-46
2023/02/03 08:33:27;;;;;;;1.08;0.90;;;31.40;46.90;;;;;;4974450;28;20292;-48
2023/02/03 08:35:59;;;;;;;1.25;0.90;;;31.30;47.00;;;;;;4974552;28;20585;-47
2023/02/03 08:38:32;;;;;;;1.65;1.10;;;31.30;47.00;;;;;;4974754;28;20217;-47
2023/02/03 08:41:03;;;;;;;1.17;0.88;;;31.30;47.00;;;;;;4974698;28;20194;-46
2023/02/03 08:43:33;;;;;;;1.63;0.82;;;31.20;47.00;;;;;;4974512;28;20205;-51
2023/02/03 08:46:06;;;;;;;1.90;1.10;;;31.20;46.90;;;;;;4974350;28;20202;-47
2023/02/03 08:48:37;;;;;;;1.15;0.80;;;31.20;47.00;;;;;;4973300;28;20693;-47
2023/02/03 08:51:13;;;;;;;2.50;0.80;;;31.20;47.00;;;;;;4974336;28;20205;-46
2023/02/03 08:53:46;;;;;;;2.20;1.00;;;31.10;45.90;;;;;;4974053;28;20236;-48
2023/02/03 08:56:16;;;;;;;1.10;0.70;;;31.10;45.80;;;;;;4974252;28;20201;-48
2023/02/03 08:58:47;;;;;;;1.23;0.80;;;31.10;45.90;;;;;;4974344;28;20698;-47
2023/02/03 09:01:18;;;;;;;1.48;0.70;;;31.00;46.00;;;;;;4974449;28;20201;-46
2023/02/03 09:03:49;;;;;;;1.02;0.70;;;31.00;46.00;;;;;;4974285;28;20229;-48
2023/02/03 09:06:21;;;;;;;1.35;0.77;;;30.90;45.90;;;;;;4974040;28;20197;-47
2023/02/03 09:08:53;;;;;;;1.13;0.52;;;30.90;46.00;;;;;;4973608;28;20229;-49
2023/02/03 09:11:24;;;;;;;2.13;1.00;;;30.90;46.00;;;;;;4973611;28;20564;-50
2023/02/03 09:13:56;;;;;;;1.00;0.70;;;30.90;46.10;;;;;;4973922;28;20229;-51
2023/02/03 09:16:27;;;;;;;1.88;0.60;;;30.90;46.20;;;;;;4973831;28;20197;-49
2023/02/03 09:18:58;;;;;;;0.50;0.50;;;30.80;46.30;;;;;;4973338;28;20602;-50
2023/02/03 09:21:29;;;;;;;1.75;0.93;;;30.80;46.40;;;;;;4972192;28;20210;-53
2023/02/03 09:24:03;;;;;;;0.60;0.60;;;30.80;46.40;;;;;;4972925;28;20194;-47
2023/02/03 09:26:34;;;;;;;1.38;0.70;;;30.70;46.30;;;;;;4973046;28;20198;-51
2023/02/03 09:29:04;;;;;;;1.20;0.68;;;30.70;46.30;;;;;;4972631;28;20602;-49
2023/02/03 09:31:35;;;;;;;2.75;0.82;;;30.70;46.30;;;;;;4973155;28;20201;-47
2023/02/03 09:34:06;;;;;;;0.85;0.63;;;30.70;46.30;;;;;;4972067;28;20228;-51
2023/02/03 09:36:36;;;;;;;1.05;0.80;;;30.60;46.30;;;;;;4972936;28;20198;-48
2023/02/03 09:39:09;;;;;;;1.13;0.60;;;30.70;46.30;;;;;;4953723;28;20219;-49
2023/02/03 09:42:07;;;;;;;1.40;0.60;;;30.70;46.30;;;;;;4965359;28;20680;-51
2023/02/03 09:44:45;;;;;;;1.67;0.60;;;30.60;46.30;;;;;;4971674;28;20653;-46
2023/02/03 09:47:19;;;;;;;1.05;0.52;;;30.60;46.20;;;;;;4972634;28;20198;-47
2023/02/03 09:49:52;;;;;;;0.80;0.50;;;30.60;46.20;;;;;;4972674;28;20221;-48
2023/02/03 09:52:25;;;;;;;1.10;0.60;;;30.60;46.20;;;;;;4973124;28;20197;-48
2023/02/03 09:55:04;;;;;;;0.98;0.60;;;30.50;46.20;;;;;;4972398;28;20241;-51
2023/02/03 09:57:42;;;;;;;1.10;0.65;;;30.50;46.30;;;;;;4972186;28;20190;-46
2023/02/03 10:00:21;;;;;;;0.75;0.73;;;30.50;46.30;;;;;;4971749;28;20198;-47
2023/02/03 10:02:59;;;;;;;0.68;0.50;;;30.40;46.10;;;;;;4953314;28;20199;-48
2023/02/03 10:05:43;;;;;;;0.85;0.60;;;30.40;46.20;;;;;;4954409;28;20257;-47
2023/02/03 10:08:25;;;;;;;1.40;0.60;;;30.40;46.30;;;;;;4971822;28;20582;-47
2023/02/03 10:11:11;;;;;;;0.73;0.70;;;30.40;46.20;;;;;;4971336;28;20198;-48
2023/02/03 10:13:50;;;;;;;1.00;0.70;;;30.40;46.20;;;;;;4972590;28;20221;-46
2023/02/03 10:16:40;;;;;;;1.10;0.63;;;30.30;46.20;;;;;;4972722;28;20190;-46
2023/02/03 10:19:18;;;;;;;1.42;0.70;;;30.30;46.20;;;;;;4972403;28;20226;-48
2023/02/03 10:21:54;;;;;;;1.02;0.70;;;30.30;46.20;;;;;;4972364;28;20202;-48
2023/02/03 10:24:28;;;;;;;0.63;0.60;;;30.20;46.20;;;;;;4970696;28;20202;-46
2023/02/03 10:27:01;;;;;;;1.05;0.60;;;30.20;46.10;;;;;;4971644;28;20200;-52
2023/02/03 10:29:39;;;;;;;0.95;0.60;;;30.20;46.00;;;;;;4971963;28;20213;-46
2023/02/03 10:32:12;;;;;;;1.48;0.77;;;30.20;45.90;;;;;;4972730;28;20194;-48
2023/02/03 10:34:48;;;;;;;0.70;0.68;;;30.20;46.00;;;;;;4972307;28;20792;-48
2023/02/03 10:37:27;;;;;;;0.70;0.70;;;30.20;45.90;;;;;;4971534;28;20194;-47
2023/02/03 10:39:59;;;;;;;0.95;0.50;;;30.10;45.80;;;;;;4971617;28;20237;-50
2023/02/03 10:45:17;;;;;;;0.80;0.50;;;30.00;45.70;;;;;;4971359;28;20194;-46
2023/02/03 10:47:49;;;;;;;0.93;0.55;;;30.00;45.70;;;;;;4971234;28;20681;-48
2023/02/03 10:50:22;;;;;;;0.50;0.50;;;30.00;45.70;;;;;;4971721;28;20518;-46
2023/02/03 10:52:53;;;;;;;1.48;0.70;;;30.00;45.70;;;;;;4978333;28;20217;-49
2023/02/03 10:55:33;;;;;;;0.95;0.57;;;29.90;45.70;;;;;;4970980;28;20693;-48
2023/02/03 10:58:16;;;;;;;0.93;0.50;;;29.90;45.70;;;;;;4971250;28;20607;-49
2023/02/03 11:00:46;;;;;;;1.20;0.60;;;29.80;45.60;;;;;;4971494;28;20201;-48
2023/02/03 11:03:26;;;;;;;1.02;0.60;;;29.80;45.70;;;;;;4971837;28;20213;-49
2023/02/03 11:06:11;;;;;;;1.75;0.70;;;29.90;45.80;;;;;;4972106;28;20290;-47
2023/02/03 11:08:44;;;;;;;1.05;0.60;;;29.80;45.80;;;;;;4971719;28;20272;-56
2023/02/03 11:11:21;;;;;;;1.95;0.80;;;29.80;45.70;;;;;;4971992;28;20665;-51
2023/02/03 11:14:12;;;;;;;1.58;0.80;;;29.80;44.70;;;;;;4971450;28;20222;-50
2023/02/03 11:16:43;;;;;;;2.13;0.80;;;29.70;44.80;;;;;;4972440;28;20229;-51
2023/02/03 11:19:19;;;;;;;1.05;0.57;;;29.70;44.20;;;;;;4971798;28;20222;-51
2023/02/03 11:21:52;;;;;;;1.70;0.82;;;29.70;44.20;;;;;;4971707;28;20198;-47
2023/02/03 11:24:25;;;;;;;1.70;0.98;;;29.60;44.30;;;;;;4971488;28;20198;-50
2023/02/03 11:26:58;;;;;;;1.42;0.82;;;29.60;44.40;;;;;;4971578;28;20416;-51
2023/02/03 11:29:33;;;;;;;2.38;0.80;;;29.50;44.40;;;;;;4970943;28;20214;-49
2023/02/03 11:32:07;;;;;;;2.67;0.90;;;29.50;44.60;;;;;;4970788;28;20240;-48
2023/02/03 11:34:41;;;;;;;1.63;0.60;;;29.50;44.60;;;;;;4971042;28;20230;-53
2023/02/03 11:37:29;;;;;;;1.73;0.80;;;29.50;44.80;;;;;;4974369;28;20213;-50
2023/02/03 11:40:14;;;;;;;1.05;0.70;;;29.40;44.80;;;;;;4955987;28;20199;-50
2023/02/03 11:42:47;;;;;;;1.98;0.63;;;29.40;44.80;;;;;;4969149;28;20221;-50
2023/02/03 11:45:28;;;;;;;1.35;0.63;;;29.40;44.90;;;;;;4974191;28;20232;-50
2023/02/03 11:48:02;;;;;;;2.45;0.70;;;29.40;45.00;;;;;;4975228;28;20229;-48
2023/02/03 11:50:36;;;;;;;2.15;0.88;;;29.40;45.10;;;;;;4974656;28;20198;-50
2023/02/03 11:53:27;;;;;;;1.45;0.60;;;29.40;45.20;;;;;;4974684;28;20205;-47
2023/02/03 11:56:30;;;;;;;0.90;0.50;;;29.40;45.20;;;;;;4974947;28;20209;-50
2023/02/03 11:59:16;;;;;;;1.05;0.70;;;29.30;45.30;;;;;;4974067;28;20229;-51
2023/02/03 12:02:07;;;;;;;2.55;0.88;;;29.30;45.30;;;;;;4974925;28;20190;-53
2023/02/03 12:05:11;;;;;;;0.93;0.63;;;29.30;45.30;;;;;;4973850;28;20565;-50
2023/02/03 12:08:02;;;;;;;1.23;0.60;;;29.30;45.30;;;;;;4974803;28;20249;-48
2023/02/03 12:10:46;;;;;;;1.58;0.80;;;29.30;45.40;;;;;;4974263;28;20190;-51
2023/02/03 12:13:32;;;;;;;2.55;0.90;;;29.20;45.30;;;;;;4974876;28;20202;-48
2023/02/03 12:16:24;;;;;;;1.55;0.80;;;29.20;45.40;;;;;;4974460;28;20206;-49
2023/02/03 12:19:09;;;;;;;0.95;0.50;;;29.20;45.50;;;;;;4954281;28;20385;-48
2023/02/03 12:21:46;;;;;;;0.85;0.63;;;29.10;45.50;;;;;;4958015;28;20198;-48
2023/02/03 12:24:31;;;;;;;1.23;0.63;;;29.10;45.60;;;;;;4974312;28;20205;-48
2023/02/03 12:27:16;;;;;;;1.10;0.70;;;29.10;45.70;;;;;;4973957;28;20201;-50
2023/02/03 12:29:51;;;;;;;1.40;0.60;;;29.10;45.80;;;;;;4974062;28;20225;-51
2023/02/03 12:32:30;;;;;;;0.60;0.60;;;29.10;45.80;;;;;;4973911;28;20194;-48
2023/02/03 12:35:14;;;;;;;3.38;0.70;;;29.00;45.80;;;;;;4974791;28;20230;-54
2023/02/03 12:37:51;;;;;;;0.95;0.70;;;29.00;45.90;;;;;;4974645;28;20210;-51
2023/02/03 12:40:27;;;;;;;1.15;0.70;;;29.00;45.90;;;;;;4974606;28;20237;-52
2023/02/03 12:43:04;;;;;;;1.13;0.75;;;29.00;45.90;;;;;;4974083;28;20193;-53
2023/02/03 12:45:39;;;;;;;0.98;0.68;;;29.00;46.00;;;;;;4974416;28;20198;-49
2023/02/03 12:48:15;;;;;;;1.70;0.77;;;29.00;46.00;;;;;;4973083;28;20228;-49
2023/02/03 12:50:50;;;;;;;0.88;0.50;;;29.00;46.00;;;;;;4976720;28;20189;-52
2023/02/03 12:53:25;;;;;;;1.27;0.60;;;28.90;46.00;;;;;;4980720;28;20681;-47
2023/02/03 12:56:03;;;;;;;1.23;0.60;;;28.90;46.00;;;;;;4978431;28;20357;-51
2023/02/03 12:58:38;;;;;;;0.43;0.40;;;28.90;46.10;;;;;;4974365;28;20609;-48
2023/02/03 13:01:14;;;;;;;1.20;0.70;;;28.90;46.10;;;;;;4974400;28;20205;-50
2023/02/03 13:03:50;;;;;;;1.60;0.60;;;28.90;46.10;;;;;;4973737;28;20673;-47
2023/02/03 13:06:27;;;;;;;1.58;0.65;;;28.90;46.20;;;;;;4973771;28;20685;-51
2023/02/03 13:09:02;;;;;;;0.60;0.50;;;28.90;46.30;;;;;;4973642;28;20230;-53
2023/02/03 13:11:39;;;;;;;1.27;0.55;;;28.80;46.30;;;;;;4973606;28;20658;-55
2023/02/03 13:14:19;;;;;;;1.63;0.95;;;28.80;46.40;;;;;;4973620;28;20270;-49
2023/02/03 13:16:54;;;;;;;1.00;0.70;;;28.80;46.40;;;;;;4973669;28;20229;-54
2023/02/03 13:19:27;;;;;;;1.02;0.50;;;28.80;46.40;;;;;;4973120;28;20225;-54
2023/02/03 13:22:00;;;;;;;0.93;0.60;;;28.80;46.50;;;;;;4973545;28;20203;-54
2023/02/03 13:24:32;;;;;;;0.68;0.65;;;28.80;46.50;;;;;;4973390;28;20250;-56
2023/02/03 13:27:25;;;;;;;1.20;0.60;;;28.70;46.40;;;;;;4973481;28;20198;-52